createdAt,value
2023-07-12T00:00:45.365Z,4.70
2023-07-12T00:03:13.156Z,4.33
2023-07-12T00:05:40.913Z,4.53
2023-07-12T00:08:19.817Z,4.50
2023-07-12T00:10:48.522Z,4.23
2023-07-12T00:13:17.156Z,4.80
2023-07-12T00:15:45.220Z,4.83
2023-07-12T00:18:14.893Z,4.37
2023-07-12T00:20:42.793Z,4.37
2023-07-12T00:23:15.362Z,5.17
2023-07-12T00:25:44.008Z,5.63
2023-07-12T00:28:22.240Z,6.10
2023-07-12T00:30:50.544Z,5.53
2023-07-12T00:33:18.808Z,5.70
2023-07-12T00:35:46.859Z,5.70
2023-07-12T00:38:18.396Z,6.20
2023-07-12T00:40:49.116Z,5.30
2023-07-12T00:43:17.624Z,4.77
2023-07-12T00:45:46.739Z,4.60
2023-07-12T00:48:14.775Z,5.20
2023-07-12T00:50:43.347Z,3.63
2023-07-12T00:53:15.123Z,4.60
2023-07-12T00:56:03.234Z,3.90
2023-07-12T00:58:36.173Z,4.33
2023-07-12T01:01:05.221Z,4.33
2023-07-12T01:03:35.661Z,4.33
2023-07-12T01:06:04.423Z,3.80
2023-07-12T01:08:32.313Z,4.20
2023-07-12T01:11:02.145Z,3.57
2023-07-12T01:13:30.722Z,3.47
2023-07-12T01:16:02.239Z,4.03
2023-07-12T01:18:31.171Z,4.00
2023-07-12T01:21:05.820Z,4.30
2023-07-12T01:23:33.804Z,3.93
2023-07-12T01:26:20.636Z,3.70
2023-07-12T01:28:49.932Z,3.47
2023-07-12T01:31:17.602Z,3.70
2023-07-12T01:33:45.371Z,3.53
2023-07-12T01:36:13.245Z,2.90
2023-07-12T01:38:41.267Z,3.10
2023-07-12T01:41:09.465Z,2.10
2023-07-12T01:43:39.415Z,2.10
2023-07-12T01:46:07.110Z,2.20
2023-07-12T01:48:34.790Z,1.90
2023-07-12T01:51:02.993Z,1.80
2023-07-12T01:53:32.522Z,1.47
2023-07-12T01:56:01.045Z,1.80
2023-07-12T01:58:29.188Z,2.20
2023-07-12T02:00:57.759Z,1.70
2023-07-12T02:03:26.056Z,2.07
2023-07-12T02:05:53.993Z,1.40
2023-07-12T02:08:22.284Z,1.60
2023-07-12T02:10:50.481Z,1.90
2023-07-12T02:13:18.185Z,1.80
2023-07-12T02:15:46.489Z,1.90
2023-07-12T02:18:14.646Z,1.70
2023-07-12T02:20:45.558Z,2.20
2023-07-12T02:23:13.257Z,3.50
2023-07-12T02:25:43.909Z,7.63
2023-07-12T02:28:11.506Z,11.93
2023-07-12T02:30:39.462Z,3.20
2023-07-12T02:33:07.046Z,4.00
2023-07-12T02:35:35.052Z,4.10
2023-07-12T02:38:02.956Z,4.80
2023-07-12T02:40:30.892Z,5.23
2023-07-12T02:42:58.734Z,4.30
2023-07-12T02:45:26.701Z,8.20
2023-07-12T02:47:54.274Z,6.00
2023-07-12T02:50:21.852Z,8.07
2023-07-12T02:52:50.707Z,9.90
2023-07-12T02:55:18.300Z,6.30
2023-07-12T02:57:45.851Z,7.97
2023-07-12T03:00:13.690Z,5.77
2023-07-12T03:02:41.583Z,6.27
2023-07-12T03:05:09.612Z,6.10
2023-07-12T03:07:39.649Z,6.93
2023-07-12T03:10:07.493Z,6.23
2023-07-12T03:12:35.152Z,6.03
2023-07-12T03:15:02.756Z,7.17
2023-07-12T03:17:30.359Z,6.43
2023-07-12T03:19:58.415Z,5.73
2023-07-12T03:22:25.998Z,6.80
2023-07-12T03:24:53.677Z,6.97
2023-07-12T03:27:22.129Z,7.07
2023-07-12T03:29:49.720Z,5.30
2023-07-12T03:32:17.363Z,5.13
2023-07-12T03:34:46.236Z,4.80
2023-07-12T03:37:14.337Z,6.10
2023-07-12T03:39:41.896Z,7.30
2023-07-12T03:42:09.448Z,5.80
2023-07-12T03:44:37.170Z,5.57
2023-07-12T03:47:04.905Z,7.90
2023-07-12T03:49:32.496Z,7.40
2023-07-12T03:52:00.044Z,5.57
2023-07-12T03:54:27.946Z,6.37
2023-07-12T03:56:56.216Z,5.23
2023-07-12T03:59:23.775Z,6.90
2023-07-12T04:01:51.854Z,5.10
2023-07-12T04:04:19.415Z,5.23
2023-07-12T04:06:47.354Z,4.73
2023-07-12T04:09:15.537Z,7.43
2023-07-12T04:11:45.478Z,5.07
2023-07-12T04:14:13.040Z,4.90
2023-07-12T04:16:40.637Z,6.63
2023-07-12T04:19:08.257Z,5.63
2023-07-12T04:21:35.822Z,5.40
2023-07-12T04:24:03.832Z,6.10
2023-07-12T04:26:32.092Z,5.77
2023-07-12T04:28:59.618Z,7.20
2023-07-12T04:31:27.247Z,6.80
2023-07-12T04:33:54.924Z,6.60
2023-07-12T04:36:24.806Z,8.57
2023-07-12T04:38:52.699Z,8.27
2023-07-12T04:41:20.279Z,8.00
2023-07-12T04:43:48.021Z,8.80
2023-07-12T04:46:15.845Z,8.10
2023-07-12T04:48:44.286Z,8.20
2023-07-12T04:51:12.101Z,10.13
2023-07-12T04:53:40.041Z,8.90
2023-07-12T04:56:07.956Z,7.00
2023-07-12T04:58:36.749Z,7.53
2023-07-12T05:01:04.467Z,9.13
2023-07-12T05:03:32.520Z,6.87
2023-07-12T05:06:09.622Z,6.70
2023-07-12T05:08:45.140Z,8.17
2023-07-12T05:11:12.675Z,7.00
2023-07-12T05:13:40.216Z,6.70
2023-07-12T05:16:07.998Z,7.80
2023-07-12T05:18:35.766Z,7.43
2023-07-12T05:21:03.469Z,7.17
2023-07-12T05:23:31.271Z,7.90
2023-07-12T05:25:58.834Z,6.27
2023-07-12T05:28:26.397Z,6.40
2023-07-12T05:30:54.047Z,6.13
2023-07-12T05:33:22.634Z,6.90
2023-07-12T05:35:50.919Z,5.97
2023-07-12T05:38:18.649Z,5.57
2023-07-12T05:40:46.305Z,6.00
2023-07-12T05:43:16.071Z,6.30
2023-07-12T05:45:44.361Z,5.87
2023-07-12T05:48:11.975Z,5.80
2023-07-12T05:50:39.528Z,5.30
2023-07-12T05:53:07.432Z,6.67
2023-07-12T05:55:35.082Z,6.63
2023-07-12T05:58:04.175Z,6.33
2023-07-12T06:00:32.999Z,7.60
2023-07-12T06:03:00.637Z,7.33
2023-07-12T06:05:28.268Z,6.90
2023-07-12T06:07:55.917Z,7.30
2023-07-12T06:10:23.517Z,6.30
2023-07-12T06:12:51.179Z,6.20
2023-07-12T06:15:19.482Z,6.60
2023-07-12T06:17:47.611Z,6.87
2023-07-12T06:20:16.069Z,6.60
2023-07-12T06:22:43.805Z,7.10
2023-07-12T06:25:11.471Z,7.10
2023-07-12T06:27:39.035Z,7.80
2023-07-12T06:30:06.927Z,7.77
2023-07-12T06:32:34.583Z,7.53
2023-07-12T06:35:02.630Z,6.50
2023-07-12T06:37:30.484Z,7.33
2023-07-12T06:39:58.031Z,6.10
2023-07-12T06:42:27.152Z,5.13
2023-07-12T06:44:55.077Z,5.40
2023-07-12T06:47:22.946Z,5.70
2023-07-12T06:49:50.522Z,5.27
2023-07-12T06:52:19.559Z,4.27
2023-07-12T06:54:47.124Z,3.50
2023-07-12T06:57:15.459Z,3.07
2023-07-12T06:59:43.056Z,2.97
2023-07-12T07:02:11.733Z,3.00
2023-07-12T07:04:39.467Z,2.90
2023-07-12T07:07:07.494Z,2.90
2023-07-12T07:09:39.264Z,3.03
2023-07-12T07:12:08.726Z,2.10
2023-07-12T07:14:36.913Z,2.27
2023-07-12T07:17:04.726Z,2.60
2023-07-12T07:19:33.091Z,2.30
2023-07-12T07:22:00.696Z,2.40
2023-07-12T07:24:28.336Z,2.20
2023-07-12T07:26:56.086Z,2.03
2023-07-12T07:29:23.988Z,2.13
2023-07-12T07:31:52.100Z,2.03
2023-07-12T07:34:19.759Z,2.07
2023-07-12T07:36:47.765Z,2.30
2023-07-12T07:39:15.689Z,1.93
2023-07-12T07:41:43.963Z,2.10
2023-07-12T07:44:11.653Z,2.00
2023-07-12T07:46:39.362Z,2.33
2023-07-12T07:49:07.096Z,2.60
2023-07-12T07:51:36.310Z,1.93
2023-07-12T07:54:03.940Z,2.23
2023-07-12T07:56:31.646Z,2.03
2023-07-12T07:58:59.238Z,2.17
2023-07-12T08:01:27.460Z,2.10
2023-07-12T08:03:55.664Z,2.77
2023-07-12T08:06:26.165Z,1.93
2023-07-12T08:08:55.974Z,1.87
2023-07-12T08:11:30.981Z,1.70
2023-07-12T08:13:58.637Z,1.70
2023-07-12T08:16:27.676Z,2.63
2023-07-12T08:18:55.330Z,2.47
2023-07-12T08:21:23.044Z,2.10
2023-07-12T08:23:50.666Z,2.10
2023-07-12T08:26:20.694Z,2.17
2023-07-12T08:28:48.420Z,1.80
2023-07-12T08:31:16.466Z,2.03
2023-07-12T08:33:45.334Z,1.90
2023-07-12T08:36:12.956Z,2.50
2023-07-12T08:38:40.498Z,2.27
2023-07-12T08:41:18.182Z,2.07
2023-07-12T08:43:54.229Z,2.30
2023-07-12T08:46:26.288Z,2.03
2023-07-12T08:49:00.136Z,2.50
2023-07-12T08:51:32.279Z,1.90
2023-07-12T08:54:00.603Z,1.90
2023-07-12T08:56:28.182Z,2.20
2023-07-12T08:58:57.072Z,2.23
2023-07-12T09:01:45.624Z,1.90
2023-07-12T09:04:25.356Z,1.83
2023-07-12T09:06:55.606Z,2.10
2023-07-12T09:09:24.212Z,2.17
2023-07-12T09:11:52.059Z,1.77
2023-07-12T09:14:20.560Z,1.83
2023-07-12T09:16:58.550Z,2.30
2023-07-12T09:19:28.503Z,2.10
2023-07-12T09:21:57.421Z,2.40
2023-07-12T09:24:32.732Z,1.97
2023-07-12T09:27:07.906Z,2.40
2023-07-12T09:29:35.631Z,1.90
2023-07-12T09:32:14.689Z,2.07
2023-07-12T09:34:42.888Z,2.33
2023-07-12T09:37:18.520Z,1.90
2023-07-12T09:39:59.495Z,2.27
2023-07-12T09:42:28.225Z,2.13
2023-07-12T09:44:56.381Z,2.73
2023-07-12T09:47:35.114Z,2.10
2023-07-12T09:50:14.763Z,1.90
2023-07-12T09:53:04.051Z,1.90
2023-07-12T09:55:31.655Z,2.17
2023-07-12T09:58:14.969Z,2.00
2023-07-12T10:00:53.068Z,2.50
2023-07-12T10:03:23.766Z,1.93
2023-07-12T10:05:59.520Z,2.17
2023-07-12T10:08:32.134Z,2.20
2023-07-12T10:10:59.727Z,2.87
2023-07-12T10:13:46.287Z,2.13
2023-07-12T10:16:20.111Z,2.10
2023-07-12T10:18:49.964Z,2.63
2023-07-12T10:21:22.665Z,2.20
2023-07-12T10:23:53.048Z,2.20
2023-07-12T10:26:20.973Z,2.00
2023-07-12T10:29:06.926Z,1.80
2023-07-12T10:31:41.023Z,2.30
2023-07-12T10:34:27.979Z,2.23
2023-07-12T10:36:58.646Z,2.20
2023-07-12T10:39:28.544Z,2.23
2023-07-12T10:42:06.940Z,1.70
2023-07-12T10:44:39.244Z,2.43
2023-07-12T10:47:11.459Z,2.50
2023-07-12T10:49:55.032Z,1.80
2023-07-12T10:52:41.509Z,1.90
2023-07-12T10:55:21.596Z,2.17
2023-07-12T10:57:52.941Z,2.97
2023-07-12T11:00:20.984Z,1.80
2023-07-12T11:02:51.645Z,2.43
2023-07-12T11:05:38.720Z,2.03
2023-07-12T11:08:06.332Z,2.30
2023-07-12T11:10:36.795Z,2.10
2023-07-12T11:13:11.594Z,2.67
2023-07-12T11:16:00.676Z,2.20
2023-07-12T11:18:36.806Z,2.23
2023-07-12T11:21:09.075Z,2.00
2023-07-12T11:23:39.880Z,1.93
2023-07-12T11:26:27.842Z,1.77
2023-07-12T11:29:15.417Z,2.00
2023-07-12T11:31:43.483Z,2.53
2023-07-12T11:34:11.144Z,1.90
2023-07-12T11:36:38.774Z,1.87
2023-07-12T11:39:18.079Z,2.03
2023-07-12T11:41:59.431Z,2.00
2023-07-12T11:44:27.410Z,1.97
2023-07-12T11:46:55.382Z,2.20
2023-07-12T11:49:28.944Z,1.90
2023-07-12T11:51:58.562Z,1.60
2023-07-12T11:54:28.273Z,2.00
2023-07-12T11:56:59.719Z,2.20
2023-07-12T11:59:30.886Z,2.00
2023-07-12T12:02:00.361Z,1.90
2023-07-12T12:04:31.637Z,1.77
2023-07-12T12:07:01.234Z,1.80
2023-07-12T12:09:31.319Z,1.90
2023-07-12T12:12:00.072Z,1.70
2023-07-12T12:14:31.962Z,2.33
2023-07-12T12:17:06.274Z,2.03
2023-07-12T12:19:34.475Z,1.70
2023-07-12T12:22:10.309Z,1.70
2023-07-12T12:24:44.256Z,2.33
2023-07-12T12:27:22.659Z,1.80
2023-07-12T12:29:51.222Z,1.87
2023-07-12T12:32:20.535Z,1.67
2023-07-12T12:34:53.662Z,1.80
2023-07-12T12:37:23.578Z,2.03
2023-07-12T12:40:01.284Z,1.87
2023-07-12T12:42:29.908Z,2.10
2023-07-12T12:44:59.003Z,2.60
2023-07-12T12:47:30.511Z,2.43
2023-07-12T12:53:30.923Z,2.30
2023-07-12T13:05:33.202Z,5.00
2023-07-12T13:17:01.030Z,5.40
2023-07-12T13:20:58.486Z,4.47
2023-07-12T13:23:37.866Z,4.60
2023-07-12T13:26:12.146Z,4.00
2023-07-12T13:28:39.743Z,3.33
2023-07-12T13:31:07.691Z,4.30
2023-07-12T13:33:35.605Z,3.70
2023-07-12T13:46:16.090Z,4.13
2023-07-12T13:48:44.066Z,3.87
2023-07-12T13:51:22.614Z,3.50
2023-07-12T13:53:50.843Z,3.20
2023-07-12T13:59:15.731Z,2.30
2023-07-12T14:09:19.377Z,1.93
2023-07-12T14:11:48.091Z,1.70
2023-07-12T14:14:16.913Z,2.00
2023-07-12T14:16:45.056Z,1.90
2023-07-12T14:19:12.787Z,1.73
2023-07-12T14:21:40.384Z,1.63
2023-07-12T14:24:10.318Z,1.70
2023-07-12T14:26:38.528Z,1.40
2023-07-12T14:29:08.845Z,1.50
2023-07-12T14:31:53.680Z,1.80
2023-07-12T14:34:21.292Z,1.90
2023-07-12T14:36:49.124Z,2.10
2023-07-12T14:39:17.545Z,1.87
2023-07-12T14:41:45.494Z,2.07
2023-07-12T14:44:17.339Z,2.17
2023-07-12T14:46:45.702Z,2.37
2023-07-12T14:49:14.428Z,2.57
2023-07-12T14:51:43.482Z,2.27
2023-07-12T14:54:18.024Z,2.30
2023-07-12T14:56:46.516Z,2.10
2023-07-12T14:59:14.603Z,2.37
2023-07-12T15:01:42.246Z,1.70
2023-07-12T15:04:15.164Z,1.43
2023-07-12T15:06:42.767Z,1.80
2023-07-12T15:09:14.237Z,2.37
2023-07-12T15:11:47.810Z,2.57
2023-07-12T15:14:15.435Z,1.10
2023-07-12T15:16:44.256Z,1.20
2023-07-12T15:19:12.061Z,2.40
2023-07-12T15:21:41.790Z,2.20
2023-07-12T15:24:13.474Z,2.23
2023-07-12T15:26:41.513Z,2.80
2023-07-12T15:29:09.111Z,2.97
2023-07-12T15:31:38.766Z,3.40
2023-07-12T15:34:06.823Z,2.90
2023-07-12T15:36:34.581Z,4.27
2023-07-12T15:39:02.148Z,4.90
2023-07-12T15:41:30.631Z,4.00
2023-07-12T15:43:59.176Z,4.50
2023-07-12T15:46:28.889Z,4.93
2023-07-12T15:48:57.350Z,4.97
2023-07-12T15:51:37.420Z,5.10
2023-07-12T15:54:15.666Z,5.30
2023-07-12T15:56:44.234Z,3.33
2023-07-12T15:59:12.401Z,5.20
2023-07-12T16:01:40.329Z,4.83
2023-07-12T16:04:07.925Z,4.93
2023-07-12T16:06:36.449Z,4.97
2023-07-12T16:09:04.041Z,5.50
2023-07-12T16:11:38.691Z,4.90
2023-07-12T16:14:13.620Z,5.47
2023-07-12T16:16:41.262Z,6.07
2023-07-12T16:19:10.010Z,8.67
2023-07-12T16:21:38.395Z,6.03
2023-07-12T16:24:06.576Z,6.73
2023-07-12T16:26:36.673Z,7.33
2023-07-12T16:29:05.301Z,8.37
2023-07-12T16:31:36.569Z,9.33
2023-07-12T16:34:08.041Z,7.30
2023-07-12T16:36:35.737Z,8.53
2023-07-12T16:39:03.385Z,7.97
2023-07-12T16:41:32.033Z,8.03
2023-07-12T16:43:59.975Z,8.40
2023-07-12T16:46:30.424Z,7.50
2023-07-12T16:49:23.586Z,8.77
2023-07-12T16:51:59.663Z,8.70
2023-07-12T16:54:28.690Z,7.23
2023-07-12T16:56:56.969Z,5.50
2023-07-12T16:59:26.901Z,6.40
2023-07-12T17:01:55.260Z,7.30
2023-07-12T17:04:24.441Z,6.20
2023-07-12T17:06:52.573Z,6.07
2023-07-12T17:09:23.657Z,5.17
2023-07-12T17:11:53.486Z,5.07
2023-07-12T17:14:21.293Z,4.50
2023-07-12T17:16:49.161Z,4.10
2023-07-12T17:19:17.063Z,4.47
2023-07-12T17:21:44.798Z,6.10
2023-07-12T17:24:14.069Z,4.30
2023-07-12T17:26:43.986Z,4.23
2023-07-12T17:29:14.451Z,5.30
2023-07-12T17:31:43.841Z,4.70
2023-07-12T17:34:20.721Z,3.80
2023-07-12T17:36:48.849Z,4.07
2023-07-12T17:39:16.668Z,4.67
2023-07-12T17:41:45.456Z,5.80
2023-07-12T17:44:20.643Z,4.80
2023-07-12T17:46:49.393Z,4.00
2023-07-12T17:49:17.488Z,3.97
2023-07-12T17:51:45.580Z,4.90
2023-07-12T17:54:14.136Z,5.53
2023-07-12T17:56:42.682Z,4.77
2023-07-12T17:59:10.812Z,3.83
2023-07-12T18:01:38.736Z,4.20
2023-07-12T18:04:07.200Z,4.23
2023-07-12T18:06:35.625Z,4.43
2023-07-12T18:09:03.431Z,7.07
2023-07-12T18:11:32.924Z,6.10
2023-07-12T18:14:01.627Z,5.90
2023-07-12T18:16:30.128Z,4.50
2023-07-12T18:18:57.850Z,4.10
2023-07-12T18:21:27.326Z,3.47
2023-07-12T18:23:55.730Z,3.20
2023-07-12T18:26:23.864Z,3.50
2023-07-12T18:28:51.956Z,3.10
2023-07-12T18:31:21.664Z,3.43
2023-07-12T18:33:49.974Z,3.63
2023-07-12T18:36:19.488Z,3.60
2023-07-12T18:38:48.070Z,3.90
2023-07-12T18:41:19.959Z,3.93
2023-07-12T18:43:48.127Z,4.27
2023-07-12T18:46:16.336Z,3.13
2023-07-12T18:48:44.801Z,3.73
2023-07-12T18:51:25.476Z,3.30
2023-07-12T18:53:54.638Z,3.30
2023-07-12T18:56:25.656Z,4.20
2023-07-12T18:58:54.341Z,3.90
2023-07-12T19:01:23.507Z,3.00
2023-07-12T19:03:51.822Z,3.47
2023-07-12T19:06:21.030Z,2.70
2023-07-12T19:08:49.252Z,3.40
2023-07-12T19:11:34.354Z,3.67
2023-07-12T19:14:02.974Z,3.67
2023-07-12T19:16:31.647Z,2.80
2023-07-12T19:18:59.705Z,2.23
2023-07-12T19:21:29.076Z,3.27
2023-07-12T19:23:57.541Z,3.47
2023-07-12T19:26:26.573Z,3.13
2023-07-12T19:28:54.838Z,3.17
2023-07-12T19:31:27.478Z,3.03
2023-07-12T19:33:56.941Z,3.33
2023-07-12T19:36:25.656Z,3.63
2023-07-12T19:38:53.611Z,3.73
2023-07-12T19:41:21.966Z,4.00
2023-07-12T19:43:50.043Z,4.00
2023-07-12T19:46:19.765Z,3.20
2023-07-12T19:48:47.549Z,3.40
2023-07-12T19:51:20.679Z,3.40
2023-07-12T19:53:51.663Z,4.17
2023-07-12T19:56:20.370Z,4.20
2023-07-12T19:58:57.278Z,4.27
2023-07-12T20:01:26.024Z,4.10
2023-07-12T20:03:55.143Z,3.50
2023-07-12T20:06:23.740Z,4.30
2023-07-12T20:08:54.144Z,4.23
2023-07-12T20:11:22.426Z,3.77
2023-07-12T20:13:50.517Z,5.30
2023-07-12T20:16:19.997Z,4.70
2023-07-12T20:18:48.496Z,4.50
2023-07-12T20:21:17.635Z,5.60
2023-07-12T20:23:46.001Z,6.07
2023-07-12T20:26:14.460Z,5.07
2023-07-12T20:28:42.402Z,6.17
2023-07-12T20:31:12.236Z,5.50
2023-07-12T20:33:40.492Z,5.97
2023-07-12T20:36:09.416Z,5.30
2023-07-12T20:38:37.226Z,5.90
2023-07-12T20:41:04.882Z,4.33
2023-07-12T20:43:32.715Z,5.10
2023-07-12T20:46:02.746Z,5.20
2023-07-12T20:48:33.132Z,4.80
2023-07-12T20:51:01.798Z,3.97
2023-07-12T20:53:31.031Z,5.70
2023-07-12T20:56:00.348Z,4.53
2023-07-12T20:58:30.510Z,4.90
2023-07-12T21:01:10.935Z,5.40
2023-07-12T21:03:39.417Z,4.93
2023-07-12T21:06:07.408Z,5.50
2023-07-12T21:08:35.702Z,5.80
2023-07-12T21:11:04.054Z,5.97
2023-07-12T21:13:33.194Z,5.80
2023-07-12T21:16:02.416Z,4.90
2023-07-12T21:18:30.528Z,5.43
2023-07-12T21:20:58.711Z,5.97
2023-07-12T21:23:26.986Z,5.20
2023-07-12T21:25:54.680Z,6.63
2023-07-12T21:28:22.832Z,5.40
2023-07-12T21:30:51.022Z,5.50
2023-07-12T21:33:19.154Z,6.30
2023-07-12T21:35:48.601Z,5.87
2023-07-12T21:38:17.072Z,5.00
2023-07-12T21:40:45.024Z,6.00
2023-07-12T21:43:13.073Z,5.20
2023-07-12T21:45:41.372Z,5.50
2023-07-12T21:48:09.963Z,5.37
2023-07-12T21:50:38.238Z,5.47
2023-07-12T21:53:05.905Z,5.13
2023-07-12T21:55:33.972Z,5.60
2023-07-12T21:58:01.637Z,4.80
2023-07-12T22:00:29.369Z,5.50
2023-07-12T22:02:57.566Z,4.93
2023-07-12T22:05:25.289Z,5.83
2023-07-12T22:07:57.674Z,5.80
2023-07-12T22:10:27.385Z,6.57
2023-07-12T22:12:55.851Z,4.67
2023-07-12T22:15:23.828Z,6.37
2023-07-12T22:17:51.950Z,6.00
2023-07-12T22:20:20.604Z,6.77
2023-07-12T22:22:48.934Z,7.00
2023-07-12T22:25:18.717Z,6.17
2023-07-12T22:27:46.916Z,6.63
2023-07-12T22:30:26.582Z,7.67
2023-07-12T22:32:54.719Z,6.53
2023-07-12T22:35:23.313Z,6.40
2023-07-12T22:37:52.400Z,6.20
2023-07-12T22:40:20.623Z,6.43
2023-07-12T22:42:48.829Z,6.70
2023-07-12T22:45:16.817Z,8.20
2023-07-12T22:47:44.887Z,8.03
2023-07-12T22:50:13.770Z,7.40
2023-07-12T22:52:42.247Z,8.10
2023-07-12T22:55:11.305Z,7.50
2023-07-12T22:57:39.026Z,6.07
2023-07-12T23:00:07.929Z,7.10
2023-07-12T23:02:35.782Z,8.57
2023-07-12T23:05:03.707Z,8.33
2023-07-12T23:07:32.262Z,7.50
2023-07-12T23:10:00.054Z,7.97
2023-07-12T23:12:29.145Z,8.17
2023-07-12T23:14:56.840Z,6.70
2023-07-12T23:17:24.650Z,7.93
2023-07-12T23:19:52.350Z,7.20
2023-07-12T23:22:20.581Z,9.00
2023-07-12T23:24:49.876Z,6.70
2023-07-12T23:27:18.803Z,7.30
2023-07-12T23:29:47.072Z,7.87
2023-07-12T23:32:15.168Z,7.40
2023-07-12T23:34:54.469Z,8.03
2023-07-12T23:37:22.685Z,6.70
2023-07-12T23:39:50.801Z,7.00
2023-07-12T23:42:18.892Z,6.70
2023-07-12T23:44:46.891Z,7.27
2023-07-12T23:47:14.470Z,8.70
2023-07-12T23:49:42.090Z,7.83
2023-07-12T23:52:12.174Z,6.87
2023-07-12T23:54:40.044Z,8.17
2023-07-12T23:57:07.825Z,6.50
2023-07-12T23:59:35.558Z,7.70
